Aérodrome :
LOGIN :

S'inscrire | Disclaimer

   EN    FR    IT 

 










Légende :    VFR   VFR Marginal   IFR   IFR Intensif   IFR Très Intensif
Visi : 
Plafond : 
>= 8 km
>= 3000ft
5 à 8 km
1000 à 3000 ft
1500m à 5 km
500 à 1000 ft
800 à 1500m
200 à 500 ft
< 800m
< 200 ft
Symboles :   Orages  Brouillard  Fortes neiges  Fortes précipitations  Vent > 20 kt
SIGMETs :   Divers  Orages  Givrage  Turbulence  Onde Orograph.  Cendres Volcan.






- Altitude de l'aérodrome : 102 ft
- Code IATA : CNG


LFBG - Cognac

DERNIER METAR :
  • 150330Z AUTO 21012KT 9000 -RA ///CB 13/10 Q1007

METARs EXPIRÉS :
  • 150300Z AUTO 20013KT 9999 ///TCU 13/10 Q1006
  • 150230Z AUTO 21013KT 9999 -RA FEW023/// BKN056/// BKN070/// ///TCU 13/10 Q1007
  • 150200Z AUTO 22010KT 9999 FEW034/// OVC056/// ///TCU 13/10 Q1007
  • 150130Z AUTO 19012KT 9999 -RA ///TCU 13/10 Q1006
  • 150100Z AUTO 19012KT 9999 -DZ ///TCU 12/10 Q1007

Prévision TAF périmée.



MET'MAP, la Météo Aéronautique d'un coup d'oeil ! - Copyright ORBIFLY Décembre 2007 - Disclaimer

ORBIFLY MET'MAP TEAM :

Programmation & Développement : Alexandra Zaïnal
Sur une idée originale de : Baudouin d'Aumeries
Assistance à la programmation : Marc-Olivier Méhu
Soutien technique & logistique : Manuel Goepfert

Contact : metmap@orbifly.com




SOURCES & CREDITS :

   NOAA